Time;durP1;ratioP1;P1;durP2;ratioP2;P2;SDS_P1;SDS_P2;PMS_P1;PMS_P2;Temp;Humidity;BMP_temperature;BMP_pressure;BME280_temperature;BME280_humidity;BME280_pressure;Samples;Min_cycle;Max_cycle;Signal;HPM_P1;HPM_P2
2022/06/16 00:01:48;;;;;;;5.97;5.47;;;18.10;99.90;;;;;;5008550;28;20639;-81
2022/06/16 00:04:15;;;;;;;6.17;5.33;;;18.10;99.90;;;;;;5008239;28;20714;-81
2022/06/16 00:06:44;;;;;;;7.00;6.30;;;18.00;99.90;;;;;;5011755;28;21170;-81
2022/06/16 00:09:10;;;;;;;6.60;5.97;;;18.00;99.90;;;;;;5001975;28;20731;-81
2022/06/16 00:11:37;;;;;;;8.77;5.53;;;17.90;99.90;;;;;;5008524;28;21056;-81
2022/06/16 00:14:04;;;;;;;6.30;5.20;;;17.90;99.90;;;;;;5006408;28;20666;-81
2022/06/16 00:16:31;;;;;;;6.07;5.57;;;17.80;99.90;;;;;;5011966;28;20639;-81
2022/06/16 00:18:58;;;;;;;5.70;5.20;;;17.90;99.90;;;;;;5012506;28;20630;-81
2022/06/16 00:21:26;;;;;;;8.00;6.40;;;17.80;99.90;;;;;;5008637;28;20655;-81
2022/06/16 00:23:54;;;;;;;6.20;5.37;;;17.80;99.90;;;;;;5005520;28;20624;-81
2022/06/16 00:26:23;;;;;;;5.30;4.80;;;17.80;99.90;;;;;;5011015;28;20723;-81
2022/06/16 00:28:50;;;;;;;5.63;4.90;;;17.70;99.90;;;;;;5009575;28;20646;-81
2022/06/16 00:31:19;;;;;;;5.63;5.20;;;17.70;99.90;;;;;;5011882;28;21296;-81
2022/06/16 00:33:47;;;;;;;7.57;5.20;;;17.70;99.90;;;;;;5007928;28;20711;-80
2022/06/16 00:36:14;;;;;;;8.03;5.37;;;17.70;99.90;;;;;;5014549;28;21014;-81
2022/06/16 00:38:42;;;;;;;5.67;5.00;;;17.60;99.90;;;;;;5007935;28;20719;-81
2022/06/16 00:41:10;;;;;;;6.97;5.70;;;17.60;99.90;;;;;;5014286;28;20650;-81
2022/06/16 00:43:38;;;;;;;6.80;6.20;;;17.60;99.90;;;;;;5015018;28;20626;-81
2022/06/16 00:46:08;;;;;;;6.67;5.43;;;17.50;99.90;;;;;;5006948;28;20648;-81
2022/06/16 00:48:41;;;;;;;6.60;6.10;;;17.50;99.90;;;;;;5012461;28;21204;-81
2022/06/16 00:51:14;;;;;;;6.70;6.07;;;17.50;99.90;;;;;;5014541;28;20722;-81
2022/06/16 00:53:42;;;;;;;6.83;5.80;;;17.40;99.90;;;;;;5007121;28;20622;-81
2022/06/16 00:56:15;;;;;;;6.57;5.87;;;17.40;99.90;;;;;;5007364;28;20645;-82
2022/06/16 00:58:45;;;;;;;5.80;5.40;;;17.40;99.90;;;;;;5008396;28;20655;-81
2022/06/16 01:01:13;;;;;;;5.60;5.20;;;17.30;99.90;;;;;;5006538;28;20724;-83
2022/06/16 01:06:26;;;;;;;6.97;6.40;;;17.20;99.90;;;;;;5012072;28;20623;-81
2022/06/16 01:08:57;;;;;;;5.70;5.30;;;17.20;99.90;;;;;;5012506;28;20639;-81
2022/06/16 01:14:45;;;;;;;5.80;5.30;;;17.20;99.90;;;;;;5011389;28;21233;-81
2022/06/16 01:17:19;;;;;;;5.40;5.10;;;17.20;99.90;;;;;;5010374;28;20987;-82
2022/06/16 01:20:02;;;;;;;6.20;5.77;;;17.10;99.90;;;;;;5010771;28;20693;-81
2022/06/16 01:22:45;;;;;;;6.00;5.50;;;17.10;99.90;;;;;;5017129;28;21217;-81
2022/06/16 01:25:24;;;;;;;6.03;5.53;;;17.10;99.90;;;;;;5010699;28;20708;-81
2022/06/16 01:28:25;;;;;;;6.07;5.57;;;17.00;99.90;;;;;;5004204;28;20636;-81
2022/06/16 01:30:59;;;;;;;6.17;5.57;;;17.00;99.90;;;;;;5006053;28;20743;-83
2022/06/16 01:33:36;;;;;;;6.77;6.13;;;17.00;99.90;;;;;;5017248;28;20633;-83
2022/06/16 01:36:08;;;;;;;6.37;5.83;;;16.90;99.90;;;;;;5010738;28;21065;-81
2022/06/16 01:38:44;;;;;;;6.30;5.80;;;16.90;99.90;;;;;;5015467;28;20694;-82
2022/06/16 01:41:21;;;;;;;6.40;5.87;;;16.80;99.90;;;;;;5009994;28;20661;-83
2022/06/16 01:43:54;;;;;;;5.93;5.43;;;16.80;99.90;;;;;;5010377;28;20615;-83
2022/06/16 01:46:24;;;;;;;6.97;6.27;;;16.80;99.90;;;;;;5008245;28;21317;-81
2022/06/16 01:48:54;;;;;;;6.10;5.63;;;16.70;99.90;;;;;;5009276;28;20662;-83
2022/06/16 01:51:27;;;;;;;7.73;6.50;;;16.70;99.90;;;;;;5011072;28;20666;-83
2022/06/16 01:53:59;;;;;;;6.43;5.93;;;16.60;99.90;;;;;;5006503;28;20750;-82
2022/06/16 01:56:31;;;;;;;6.20;5.53;;;16.60;99.90;;;;;;5014449;28;20730;-82
2022/06/16 01:59:02;;;;;;;8.20;6.23;;;16.60;99.90;;;;;;5012153;28;20635;-82
2022/06/16 02:01:34;;;;;;;6.40;5.90;;;16.60;99.90;;;;;;5011455;28;20767;-83
2022/06/16 02:04:07;;;;;;;6.37;5.87;;;16.50;99.90;;;;;;5014179;28;20623;-82
2022/06/16 02:06:39;;;;;;;5.83;5.33;;;16.50;99.90;;;;;;5014330;28;20641;-83
2022/06/16 02:09:10;;;;;;;6.10;5.60;;;16.40;99.90;;;;;;5016561;28;20674;-81
2022/06/16 02:11:38;;;;;;;7.63;5.80;;;16.40;99.90;;;;;;5012262;28;20637;-83
2022/06/16 02:14:12;;;;;;;6.40;5.90;;;16.30;99.90;;;;;;5011924;28;20646;-83
2022/06/16 02:16:42;;;;;;;6.33;5.83;;;16.30;99.90;;;;;;5009322;28;20723;-83
2022/06/16 02:19:13;;;;;;;5.93;5.47;;;16.30;99.90;;;;;;5007770;28;20631;-80
2022/06/16 02:21:42;;;;;;;6.10;5.57;;;16.30;99.90;;;;;;5008855;28;20658;-83
2022/06/16 02:24:13;;;;;;;6.53;5.93;;;16.30;99.90;;;;;;5012709;28;20620;-83
2022/06/16 02:26:41;;;;;;;7.70;6.40;;;16.20;99.90;;;;;;5012980;28;20627;-83
2022/06/16 02:29:22;;;;;;;6.57;6.07;;;16.20;99.90;;;;;;5009031;28;20635;-83
2022/06/16 02:32:05;;;;;;;6.30;5.80;;;16.20;99.90;;;;;;5008733;28;21094;-82
2022/06/16 02:34:43;;;;;;;6.30;5.90;;;16.10;99.90;;;;;;5008326;28;20739;-83
2022/06/16 02:37:34;;;;;;;6.77;5.90;;;16.10;99.90;;;;;;5008754;28;21105;-82
2022/06/16 02:40:24;;;;;;;7.87;6.00;;;16.10;99.90;;;;;;5010839;28;20686;-82
2022/06/16 02:43:06;;;;;;;6.77;6.17;;;16.00;99.90;;;;;;5009308;28;20642;-82
2022/06/16 02:45:39;;;;;;;6.10;5.60;;;16.00;99.90;;;;;;5009987;28;21581;-82
2022/06/16 02:48:11;;;;;;;6.93;6.27;;;16.00;99.90;;;;;;5006870;28;20710;-82
2022/06/16 02:50:48;;;;;;;6.20;5.60;;;16.00;99.90;;;;;;5007411;28;20666;-82
2022/06/16 02:53:27;;;;;;;7.70;6.03;;;16.00;99.90;;;;;;5007463;28;20618;-83
2022/06/16 02:55:59;;;;;;;6.60;6.00;;;15.90;99.90;;;;;;5011778;28;20725;-82
2022/06/16 02:58:29;;;;;;;6.80;5.57;;;15.90;99.90;;;;;;5012683;28;20631;-82
2022/06/16 03:00:57;;;;;;;6.33;5.93;;;15.90;99.90;;;;;;5016677;28;20912;-82
2022/06/16 03:03:28;;;;;;;8.20;6.20;;;15.90;99.90;;;;;;5018211;28;20665;-82
2022/06/16 03:05:57;;;;;;;6.37;5.90;;;15.80;99.90;;;;;;5016242;28;20627;-81
2022/06/16 03:08:26;;;;;;;6.67;6.20;;;15.80;99.90;;;;;;5017658;28;20704;-82
2022/06/16 03:10:54;;;;;;;6.00;5.50;;;15.80;99.90;;;;;;5016174;28;21508;-82
2022/06/16 03:13:24;;;;;;;6.70;6.10;;;15.80;99.90;;;;;;5018560;28;20639;-81
2022/06/16 03:15:52;;;;;;;6.33;5.83;;;15.70;99.90;;;;;;5012428;28;20678;-81
2022/06/16 03:18:21;;;;;;;6.40;5.90;;;15.80;99.90;;;;;;5019292;28;20638;-82
2022/06/16 03:20:50;;;;;;;6.93;5.93;;;15.70;99.90;;;;;;5012421;28;20713;-82
2022/06/16 03:23:17;;;;;;;5.83;5.00;;;15.70;99.90;;;;;;5019395;28;20630;-82
2022/06/16 03:25:44;;;;;;;7.50;6.50;;;15.70;99.90;;;;;;5013915;28;21027;-82
2022/06/16 03:28:12;;;;;;;6.50;5.90;;;15.70;99.90;;;;;;5006658;28;20632;-81
2022/06/16 03:30:41;;;;;;;6.50;6.00;;;15.70;99.90;;;;;;5013424;28;20658;-81
2022/06/16 03:33:10;;;;;;;6.27;5.77;;;15.60;99.90;;;;;;5015138;28;20634;-81
2022/06/16 03:35:38;;;;;;;6.50;6.00;;;15.70;99.90;;;;;;5015585;28;20670;-82
2022/06/16 03:38:08;;;;;;;6.47;5.83;;;15.70;99.90;;;;;;5009790;28;20652;-82
2022/06/16 03:40:35;;;;;;;6.87;6.37;;;15.60;99.90;;;;;;4998584;28;20667;-81
2022/06/16 03:43:01;;;;;;;6.57;6.17;;;15.70;99.90;;;;;;5006991;28;20977;-81
2022/06/16 03:45:28;;;;;;;6.53;6.03;;;15.60;99.90;;;;;;5012533;28;20623;-81
2022/06/16 03:47:55;;;;;;;6.07;5.63;;;15.70;99.90;;;;;;5001379;28;20635;-82
2022/06/16 03:50:22;;;;;;;6.77;6.27;;;15.70;99.90;;;;;;5011700;28;20693;-81
2022/06/16 03:52:49;;;;;;;6.20;5.70;;;15.70;99.90;;;;;;5013754;28;20632;-81
2022/06/16 03:55:17;;;;;;;6.73;6.13;;;15.70;99.90;;;;;;5015354;28;20666;-82
2022/06/16 03:57:45;;;;;;;6.60;5.90;;;15.70;99.90;;;;;;5014151;28;20991;-82
2022/06/16 04:00:14;;;;;;;5.67;5.13;;;15.80;99.90;;;;;;5007314;28;20656;-82
2022/06/16 04:02:41;;;;;;;5.80;5.33;;;15.70;99.90;;;;;;5003549;28;20637;-82
2022/06/16 04:05:08;;;;;;;7.03;6.43;;;15.80;99.90;;;;;;5017813;28;20642;-82
2022/06/16 04:07:35;;;;;;;10.47;6.57;;;15.90;99.90;;;;;;5014108;28;20722;-82
2022/06/16 04:10:02;;;;;;;6.37;5.87;;;15.90;99.90;;;;;;5016888;28;21206;-82
2022/06/16 04:12:30;;;;;;;7.33;6.73;;;16.00;99.90;;;;;;5007623;28;20681;-82
2022/06/16 04:14:57;;;;;;;7.43;6.83;;;16.10;99.90;;;;;;5005804;28;20667;-82
2022/06/16 04:17:24;;;;;;;7.03;6.43;;;16.10;99.90;;;;;;5017223;28;20645;-82
2022/06/16 04:22:35;;;;;;;6.80;6.40;;;16.30;99.90;;;;;;5012634;28;20637;-82
2022/06/16 04:25:02;;;;;;;6.37;5.50;;;16.40;99.90;;;;;;5000691;28;20624;-82
2022/06/16 04:27:30;;;;;;;6.77;6.27;;;16.50;99.90;;;;;;5006160;28;20643;-82
2022/06/16 04:29:57;;;;;;;6.83;6.33;;;16.60;99.90;;;;;;5013000;28;20647;-82
2022/06/16 04:32:24;;;;;;;7.70;7.03;;;16.60;99.90;;;;;;5013931;28;21031;-82
2022/06/16 04:34:51;;;;;;;6.80;6.10;;;16.70;99.90;;;;;;5015371;28;21557;-82
2022/06/16 04:37:18;;;;;;;7.10;6.40;;;16.90;99.90;;;;;;5013702;28;20678;-81
2022/06/16 04:39:45;;;;;;;6.77;6.23;;;16.90;99.90;;;;;;5020385;28;20650;-82
2022/06/16 04:42:11;;;;;;;6.87;6.37;;;17.00;99.90;;;;;;5013458;28;20631;-82
2022/06/16 04:44:40;;;;;;;7.63;6.17;;;17.10;99.90;;;;;;5008527;28;21200;-81
2022/06/16 04:47:08;;;;;;;6.37;5.90;;;17.20;99.90;;;;;;5003112;28;20677;-82
2022/06/16 04:49:37;;;;;;;7.23;5.87;;;17.20;99.90;;;;;;5007380;28;20659;-82
2022/06/16 04:52:05;;;;;;;6.97;6.50;;;17.40;99.90;;;;;;5015816;28;20632;-82
2022/06/16 04:54:32;;;;;;;6.77;6.10;;;17.50;99.90;;;;;;5018932;28;20626;-82
2022/06/16 04:56:59;;;;;;;6.13;5.63;;;17.40;99.90;;;;;;5020472;28;21117;-81
2022/06/16 04:59:26;;;;;;;6.33;5.90;;;17.50;99.90;;;;;;5009755;28;21139;-82
2022/06/16 05:01:55;;;;;;;6.00;5.57;;;17.50;99.90;;;;;;5008954;28;20627;-82
2022/06/16 05:04:22;;;;;;;8.87;5.90;;;17.60;99.90;;;;;;5010547;28;20644;-82
2022/06/16 05:06:49;;;;;;;6.47;5.87;;;17.60;99.90;;;;;;5012465;28;20699;-82
2022/06/16 05:09:16;;;;;;;8.37;5.50;;;17.70;99.90;;;;;;5009540;28;20647;-82
2022/06/16 05:11:43;;;;;;;6.50;5.73;;;17.70;99.90;;;;;;5008082;28;20639;-83
2022/06/16 05:14:10;;;;;;;6.33;5.67;;;17.70;99.90;;;;;;5006450;28;20758;-82
2022/06/16 05:16:37;;;;;;;5.80;5.37;;;17.80;99.90;;;;;;5004997;28;20671;-81
2022/06/16 05:19:05;;;;;;;6.30;5.80;;;17.90;99.90;;;;;;5008392;28;21160;-81
2022/06/16 05:21:32;;;;;;;7.33;5.40;;;17.90;99.90;;;;;;5012692;28;20661;-81
2022/06/16 05:23:59;;;;;;;6.13;5.60;;;18.00;99.90;;;;;;5016922;28;20635;-81
2022/06/16 05:26:28;;;;;;;5.50;5.00;;;18.10;99.90;;;;;;5018797;28;20638;-81
2022/06/16 05:28:55;;;;;;;8.47;5.70;;;18.10;99.90;;;;;;5016010;28;20706;-81
2022/06/16 05:31:23;;;;;;;6.57;5.80;;;18.10;99.90;;;;;;5019127;28;20654;-81
2022/06/16 05:33:50;;;;;;;6.00;5.50;;;18.10;99.90;;;;;;5014065;28;20746;-81
2022/06/16 05:36:18;;;;;;;6.63;5.47;;;18.20;99.90;;;;;;5020777;28;20674;-81
2022/06/16 05:38:45;;;;;;;6.17;5.67;;;18.30;99.90;;;;;;5013651;28;20631;-81
2022/06/16 05:41:14;;;;;;;6.20;5.70;;;18.40;99.90;;;;;;5017306;28;20658;-81
2022/06/16 05:43:42;;;;;;;5.27;4.90;;;18.50;99.90;;;;;;5006716;28;21224;-82
2022/06/16 05:46:16;;;;;;;5.53;5.13;;;18.70;99.90;;;;;;5017524;28;20622;-81
2022/06/16 05:48:43;;;;;;;5.70;5.20;;;18.80;99.90;;;;;;5016480;28;20634;-81
2022/06/16 05:51:12;;;;;;;6.47;6.00;;;19.00;99.90;;;;;;5011233;28;20658;-81
2022/06/16 05:53:41;;;;;;;5.80;5.40;;;19.20;99.90;;;;;;5017054;28;21586;-82
2022/06/16 05:56:08;;;;;;;5.57;4.87;;;19.30;99.90;;;;;;5020993;28;21274;-81
2022/06/16 05:58:35;;;;;;;8.30;5.63;;;19.40;99.90;;;;;;5014999;28;20634;-81
2022/06/16 06:01:04;;;;;;;6.03;5.63;;;19.50;99.90;;;;;;5014701;28;20663;-80
2022/06/16 06:03:31;;;;;;;5.73;5.33;;;19.50;99.90;;;;;;5002105;28;20669;-81
2022/06/16 06:05:59;;;;;;;6.10;5.67;;;19.50;99.90;;;;;;5005086;28;20646;-81
2022/06/16 06:16:45;;;;;;;8.07;4.90;;;20.20;99.90;;;;;;5016035;28;20670;-81
2022/06/16 06:19:26;;;;;;;5.63;5.13;;;20.50;99.90;;;;;;5008940;28;20718;-81
2022/06/16 06:22:05;;;;;;;6.20;4.60;;;20.50;99.90;;;;;;5014383;28;21138;-81
2022/06/16 06:24:35;;;;;;;4.83;4.43;;;20.60;99.90;;;;;;5014286;28;20678;-81
2022/06/16 06:27:05;;;;;;;4.57;4.23;;;20.70;99.90;;;;;;5018348;28;21012;-81
2022/06/16 06:29:34;;;;;;;4.23;3.93;;;20.70;99.90;;;;;;5014223;28;20659;-82
2022/06/16 06:32:01;;;;;;;4.63;4.33;;;20.80;99.90;;;;;;5016771;28;20694;-80
2022/06/16 06:34:28;;;;;;;5.37;4.87;;;21.00;99.90;;;;;;5014180;28;20645;-80
2022/06/16 06:36:55;;;;;;;5.40;4.57;;;21.10;99.90;;;;;;5007549;28;20671;-80
2022/06/16 06:39:22;;;;;;;4.73;4.30;;;21.10;99.90;;;;;;5013808;28;20644;-80
2022/06/16 06:41:50;;;;;;;4.97;4.47;;;21.30;99.90;;;;;;5014818;28;20632;-81
2022/06/16 06:44:18;;;;;;;9.90;4.87;;;21.30;99.90;;;;;;5019592;28;20641;-82
2022/06/16 06:46:45;;;;;;;4.73;4.33;;;21.30;99.90;;;;;;5014201;28;20634;-82
2022/06/16 06:49:12;;;;;;;5.93;4.00;;;21.40;99.90;;;;;;5018471;28;20641;-82
2022/06/16 06:51:39;;;;;;;5.33;4.57;;;21.50;99.90;;;;;;5015651;28;20627;-81
2022/06/16 06:54:06;;;;;;;5.53;5.03;;;21.60;99.90;;;;;;5016478;28;20717;-81
2022/06/16 06:56:33;;;;;;;4.67;4.27;;;21.70;99.90;;;;;;5017857;28;20666;-81
2022/06/16 06:59:04;;;;;;;5.10;4.63;;;21.60;99.90;;;;;;5015306;28;20624;-80
2022/06/16 07:01:33;;;;;;;5.73;4.40;;;21.80;99.90;;;;;;5016375;28;20663;-81
2022/06/16 07:04:02;;;;;;;5.17;4.70;;;22.00;99.90;;;;;;5012630;28;21554;-80
2022/06/16 07:06:29;;;;;;;6.30;4.77;;;22.10;99.90;;;;;;5017420;28;20758;-80
2022/06/16 07:08:56;;;;;;;4.93;4.43;;;22.20;99.90;;;;;;5017704;28;21225;-80
2022/06/16 07:11:23;;;;;;;5.30;4.90;;;22.30;99.90;;;;;;5014641;28;20667;-80
2022/06/16 07:13:50;;;;;;;6.20;4.60;;;22.50;99.90;;;;;;5015035;28;21026;-82
2022/06/16 07:16:17;;;;;;;4.47;4.17;;;22.60;99.90;;;;;;5018205;28;20674;-81
2022/06/16 07:18:46;;;;;;;6.80;4.93;;;22.80;99.90;;;;;;5014281;28;20632;-81
2022/06/16 07:21:14;;;;;;;5.80;5.30;;;22.80;99.90;;;;;;5009159;28;20666;-81
2022/06/16 07:23:41;;;;;;;5.30;4.90;;;23.00;99.90;;;;;;5008181;28;20994;-81
2022/06/16 07:26:09;;;;;;;4.40;4.00;;;23.00;99.90;;;;;;5013922;28;20626;-81
2022/06/16 07:28:36;;;;;;;3.93;3.63;;;23.00;99.90;;;;;;5015684;28;20623;-80
2022/06/16 07:31:03;;;;;;;7.27;5.00;;;23.00;99.90;;;;;;5017599;28;20655;-80
2022/06/16 07:33:29;;;;;;;4.30;4.00;;;23.20;99.60;;;;;;5015007;28;20615;-80
2022/06/16 07:35:58;;;;;;;4.97;4.57;;;23.30;99.30;;;;;;5015713;28;20678;-80
2022/06/16 07:38:26;;;;;;;8.47;4.50;;;23.40;98.20;;;;;;5017720;28;21165;-81
2022/06/16 07:41:31;;;;;;;6.17;4.23;;;23.50;97.90;;;;;;5014464;28;20647;-82
2022/06/16 07:43:41;;;;;;;4.67;4.30;;;23.60;97.70;;;;;;5013574;28;20604;-80
2022/06/16 07:46:08;;;;;;;4.50;4.20;;;23.70;97.30;;;;;;5008516;28;20636;-80
2022/06/16 07:48:35;;;;;;;9.20;5.20;;;23.80;96.50;;;;;;5003863;28;21037;-80
2022/06/16 07:51:04;;;;;;;4.63;4.23;;;24.00;96.40;;;;;;5008390;28;20775;-80
2022/06/16 07:53:31;;;;;;;4.33;3.90;;;24.10;95.30;;;;;;5014373;28;20631;-80
2022/06/16 07:55:58;;;;;;;4.27;3.90;;;24.30;95.20;;;;;;5017453;28;20681;-82
2022/06/16 07:58:29;;;;;;;7.80;5.00;;;24.40;94.30;;;;;;5014432;28;20654;-82
2022/06/16 08:00:56;;;;;;;5.03;4.63;;;24.60;93.80;;;;;;5016577;28;20659;-82
2022/06/16 08:03:26;;;;;;;4.50;4.20;;;24.70;92.90;;;;;;5016514;28;20630;-82
2022/06/16 08:05:53;;;;;;;5.20;4.70;;;24.80;92.30;;;;;;5016199;28;20666;-82
2022/06/16 08:08:23;;;;;;;4.30;4.00;;;24.90;91.90;;;;;;5016999;28;20630;-82
2022/06/16 08:10:51;;;;;;;5.40;4.17;;;25.00;90.60;;;;;;5012793;28;20701;-80
2022/06/16 08:13:18;;;;;;;4.13;3.90;;;25.10;90.70;;;;;;5006171;28;20624;-83
2022/06/16 08:15:46;;;;;;;4.40;4.00;;;25.20;91.10;;;;;;5002941;28;21212;-82
2022/06/16 08:18:15;;;;;;;4.80;4.40;;;25.20;90.70;;;;;;5004531;28;21204;-80
2022/06/16 08:20:42;;;;;;;5.07;4.30;;;25.30;91.30;;;;;;5006594;28;20689;-82
2022/06/16 08:23:10;;;;;;;5.10;4.43;;;25.40;91.00;;;;;;5014342;28;20742;-82
2022/06/16 08:25:40;;;;;;;4.53;4.00;;;25.40;90.60;;;;;;5005161;28;20616;-81
2022/06/16 08:28:07;;;;;;;4.70;4.30;;;25.50;91.30;;;;;;5007865;28;21386;-81
2022/06/16 08:30:35;;;;;;;8.10;4.10;;;25.50;90.40;;;;;;5012563;28;20684;-81
2022/06/16 08:33:02;;;;;;;5.93;5.03;;;25.50;90.50;;;;;;5004837;28;20620;-81
2022/06/16 08:35:29;;;;;;;4.67;4.27;;;25.50;90.60;;;;;;5010534;28;20647;-80
2022/06/16 08:37:58;;;;;;;3.93;3.63;;;25.40;90.70;;;;;;5004756;28;21304;-81
2022/06/16 08:40:26;;;;;;;5.53;4.97;;;25.40;90.90;;;;;;5005486;28;21019;-81
2022/06/16 08:43:00;;;;;;;4.23;3.93;;;25.50;88.70;;;;;;5011570;28;21300;-81
2022/06/16 08:45:32;;;;;;;5.23;4.03;;;25.50;88.30;;;;;;5004733;28;21001;-81
2022/06/16 08:48:19;;;;;;;7.90;4.20;;;25.60;88.40;;;;;;5004113;28;20627;-81
2022/06/16 08:50:52;;;;;;;4.27;3.87;;;25.60;87.70;;;;;;5009083;28;21558;-81
2022/06/16 08:53:34;;;;;;;5.93;4.10;;;25.70;87.30;;;;;;5003326;28;20632;-81
2022/06/16 08:56:07;;;;;;;3.83;3.50;;;25.80;88.40;;;;;;5003914;28;20623;-81
2022/06/16 08:58:43;;;;;;;7.80;4.10;;;25.80;85.30;;;;;;5004064;28;21014;-81
2022/06/16 09:01:14;;;;;;;4.80;4.40;;;25.90;85.70;;;;;;5007282;28;20658;-81
2022/06/16 09:03:47;;;;;;;5.20;4.70;;;25.90;83.60;;;;;;5013798;28;20634;-81
2022/06/16 09:06:26;;;;;;;4.43;3.93;;;25.80;82.60;;;;;;5007837;28;20646;-81
2022/06/16 09:09:02;;;;;;;7.40;4.07;;;25.70;82.90;;;;;;5017495;28;20916;-81
2022/06/16 09:11:36;;;;;;;6.20;3.70;;;25.70;82.50;;;;;;5016117;28;20669;-81
2022/06/16 09:17:35;;;;;;;6.47;4.40;;;25.70;79.50;;;;;;5017424;28;20662;-81
2022/06/16 09:20:12;;;;;;;7.37;4.70;;;25.60;79.70;;;;;;5013922;28;20662;-82
2022/06/16 09:23:04;;;;;;;6.30;5.50;;;25.60;79.50;;;;;;5014779;28;20623;-81
2022/06/16 09:25:46;;;;;;;5.20;3.63;;;25.70;79.60;;;;;;5010797;28;21216;-81
2022/06/16 09:28:18;;;;;;;7.03;4.63;;;25.80;80.00;;;;;;5009849;28;20634;-81
2022/06/16 09:30:49;;;;;;;4.23;3.83;;;25.80;78.50;;;;;;5012214;28;20841;-81
2022/06/16 09:33:19;;;;;;;4.87;3.50;;;25.90;79.00;;;;;;5003018;28;20647;-81
2022/06/16 09:35:51;;;;;;;3.97;3.57;;;25.90;79.30;;;;;;5013286;28;20628;-81
2022/06/16 09:38:24;;;;;;;4.53;4.00;;;26.00;79.90;;;;;;5018191;28;20651;-81
2022/06/16 09:40:55;;;;;;;5.30;4.03;;;26.20;78.30;;;;;;5002883;28;20663;-81
2022/06/16 09:43:28;;;;;;;4.47;4.10;;;26.30;79.40;;;;;;5005744;28;20619;-80
2022/06/16 09:46:01;;;;;;;4.50;4.10;;;26.50;78.50;;;;;;5011920;28;20634;-81
2022/06/16 09:48:32;;;;;;;5.00;4.60;;;26.50;78.60;;;;;;5007520;28;20658;-81
2022/06/16 09:51:02;;;;;;;6.27;5.67;;;26.60;80.20;;;;;;5014078;28;20651;-81
2022/06/16 09:53:36;;;;;;;6.00;4.83;;;26.70;81.10;;;;;;5014912;28;20627;-81
2022/06/16 09:56:06;;;;;;;8.33;4.60;;;26.80;80.00;;;;;;5020709;28;21214;-81
2022/06/16 09:58:40;;;;;;;5.60;5.00;;;26.90;79.40;;;;;;5016723;28;20658;-81
2022/06/16 10:01:12;;;;;;;5.00;4.60;;;26.90;78.90;;;;;;5019257;28;20670;-81
2022/06/16 10:03:53;;;;;;;6.50;4.67;;;26.80;79.70;;;;;;5016294;28;20724;-81
2022/06/16 10:06:28;;;;;;;5.73;5.23;;;26.90;81.00;;;;;;5012364;28;21080;-81
2022/06/16 10:09:05;;;;;;;4.77;4.37;;;27.00;80.00;;;;;;5017615;28;20734;-81
2022/06/16 10:11:44;;;;;;;7.57;4.70;;;27.10;80.90;;;;;;5014666;28;20655;-81
2022/06/16 10:14:18;;;;;;;4.73;4.33;;;27.20;80.90;;;;;;5017100;28;20610;-81
2022/06/16 10:16:53;;;;;;;5.30;4.67;;;27.40;81.60;;;;;;5006410;28;20673;-81
2022/06/16 10:19:22;;;;;;;4.80;4.40;;;27.50;81.40;;;;;;5009473;28;20735;-81
2022/06/16 10:21:49;;;;;;;10.27;4.50;;;27.50;79.10;;;;;;5005626;28;20638;-81
2022/06/16 10:24:18;;;;;;;4.53;4.13;;;27.50;79.00;;;;;;5008307;28;20675;-81
2022/06/16 10:26:45;;;;;;;4.87;4.57;;;27.60;78.10;;;;;;5019660;28;20629;-81
2022/06/16 10:29:22;;;;;;;5.87;5.30;;;27.70;77.80;;;;;;5018003;28;20627;-81
2022/06/16 10:31:52;;;;;;;5.07;4.37;;;27.70;78.30;;;;;;5011720;28;21210;-81
2022/06/16 10:34:26;;;;;;;6.43;4.70;;;27.60;78.70;;;;;;5016551;28;20635;-81
2022/06/16 10:37:08;;;;;;;4.60;4.30;;;27.60;78.80;;;;;;5010531;28;20729;-81
2022/06/16 10:39:43;;;;;;;3.97;3.70;;;27.70;79.20;;;;;;5004528;28;20671;-80
2022/06/16 10:42:19;;;;;;;5.70;5.20;;;27.70;79.20;;;;;;5005262;28;20712;-82
2022/06/16 10:44:55;;;;;;;5.17;4.77;;;27.80;79.60;;;;;;5014456;28;20656;-80
2022/06/16 10:47:32;;;;;;;4.60;4.10;;;27.80;77.60;;;;;;5014271;28;20734;-80
2022/06/16 10:50:00;;;;;;;5.50;4.07;;;27.70;77.50;;;;;;5016175;28;20651;-81
2022/06/16 10:52:32;;;;;;;5.13;4.23;;;27.80;77.70;;;;;;5014070;28;20608;-82
2022/06/16 10:55:05;;;;;;;4.90;4.43;;;27.90;77.10;;;;;;5016174;28;21045;-82
2022/06/16 10:57:40;;;;;;;6.10;4.10;;;27.90;78.40;;;;;;5016674;28;21091;-82
2022/06/16 11:00:13;;;;;;;5.57;4.40;;;27.90;77.60;;;;;;5013572;28;20650;-82
2022/06/16 11:02:56;;;;;;;6.60;3.80;;;28.00;77.60;;;;;;5006123;28;20983;-82
2022/06/16 11:05:24;;;;;;;5.30;4.17;;;28.10;77.80;;;;;;5012664;28;20639;-82
2022/06/16 11:07:51;;;;;;;4.80;4.30;;;28.40;78.00;;;;;;5015518;28;20695;-81
2022/06/16 11:10:30;;;;;;;3.67;3.37;;;28.60;77.10;;;;;;5020034;28;20663;-81
2022/06/16 11:12:58;;;;;;;4.00;3.70;;;28.80;76.60;;;;;;5013143;28;20631;-81
2022/06/16 11:15:29;;;;;;;4.80;3.67;;;29.10;75.50;;;;;;5017294;28;20630;-81
2022/06/16 11:18:00;;;;;;;4.93;4.07;;;29.30;74.70;;;;;;5011894;28;20689;-82
2022/06/16 11:20:39;;;;;;;3.30;3.00;;;29.40;74.00;;;;;;5017849;28;21014;-82
2022/06/16 11:23:20;;;;;;;8.43;3.87;;;29.50;72.10;;;;;;5021520;28;20681;-82
2022/06/16 11:25:55;;;;;;;5.93;3.80;;;29.60;71.50;;;;;;5011152;28;21016;-82
2022/06/16 11:28:24;;;;;;;4.80;3.50;;;29.70;72.10;;;;;;5018814;28;20625;-82
2022/06/16 11:30:58;;;;;;;7.67;4.13;;;29.90;71.20;;;;;;5015441;28;20655;-81
2022/06/16 11:36:22;;;;;;;6.27;4.20;;;30.10;69.70;;;;;;5011909;28;20625;-81
2022/06/16 11:38:56;;;;;;;4.20;3.80;;;30.40;67.40;;;;;;5008116;28;20664;-80
2022/06/16 11:41:25;;;;;;;4.87;4.33;;;30.40;63.90;;;;;;5006930;28;20673;-81
2022/06/16 11:44:17;;;;;;;5.00;4.17;;;30.40;64.10;;;;;;5008382;28;21174;-81
2022/06/16 11:46:52;;;;;;;3.90;3.60;;;30.50;65.70;;;;;;5007247;28;20615;-82
2022/06/16 11:49:33;;;;;;;8.47;3.77;;;30.60;65.80;;;;;;5003154;28;20638;-82
2022/06/16 11:52:08;;;;;;;6.60;4.03;;;30.90;65.80;;;;;;5003391;28;20610;-81
2022/06/16 11:54:54;;;;;;;6.23;4.83;;;31.30;64.00;;;;;;5013195;28;20737;-81
2022/06/16 11:57:30;;;;;;;7.40;4.80;;;31.60;64.40;;;;;;5013747;28;21265;-82
2022/06/16 12:00:07;;;;;;;4.03;3.53;;;31.80;62.70;;;;;;5011679;28;20685;-81
2022/06/16 12:03:04;;;;;;;4.17;3.83;;;31.90;61.00;;;;;;5015106;28;20646;-81
2022/06/16 12:05:38;;;;;;;4.00;3.70;;;31.90;60.90;;;;;;5015309;28;20649;-81
2022/06/16 12:08:24;;;;;;;6.97;4.20;;;32.10;60.10;;;;;;5011550;28;20625;-82
2022/06/16 12:10:53;;;;;;;4.50;4.10;;;32.30;59.60;;;;;;5004590;28;20655;-81
2022/06/16 12:13:28;;;;;;;6.07;5.57;;;32.50;60.20;;;;;;5006751;28;21248;-81
2022/06/16 12:16:00;;;;;;;5.90;3.70;;;32.70;59.20;;;;;;5016399;28;20626;-81
2022/06/16 12:18:43;;;;;;;7.83;3.37;;;32.90;57.50;;;;;;5018164;28;20677;-81
2022/06/16 12:21:20;;;;;;;4.10;3.70;;;32.90;56.00;;;;;;5012168;28;20666;-82
2022/06/16 12:23:56;;;;;;;4.60;3.10;;;33.10;56.10;;;;;;5007005;28;20742;-81
2022/06/16 12:26:28;;;;;;;4.50;3.57;;;33.20;53.40;;;;;;5005705;28;20682;-81
2022/06/16 12:29:05;;;;;;;3.67;3.30;;;33.30;53.30;;;;;;5015416;28;20623;-81
2022/06/16 12:31:38;;;;;;;4.60;3.47;;;33.50;53.40;;;;;;5014741;28;20658;-81
2022/06/16 12:34:16;;;;;;;4.57;3.63;;;33.70;53.60;;;;;;5015115;28;20587;-81
2022/06/16 12:36:51;;;;;;;4.53;3.10;;;34.10;53.20;;;;;;5010351;28;20638;-81
2022/06/16 12:39:23;;;;;;;5.93;3.93;;;34.40;51.80;;;;;;5013179;28;20649;-81
2022/06/16 12:41:54;;;;;;;4.90;3.50;;;34.20;50.30;;;;;;5007913;28;20634;-81
2022/06/16 12:44:27;;;;;;;4.30;3.30;;;34.20;50.50;;;;;;5018306;28;21088;-81
2022/06/16 12:47:00;;;;;;;3.90;3.60;;;34.30;50.70;;;;;;5009224;28;20619;-81
2022/06/16 12:49:32;;;;;;;4.40;2.77;;;34.30;50.70;;;;;;5017013;28;20658;-81
2022/06/16 12:52:04;;;;;;;3.50;3.00;;;34.60;50.20;;;;;;5016466;28;21302;-79
2022/06/16 12:54:37;;;;;;;3.97;3.00;;;34.60;49.20;;;;;;5015423;28;20630;-81
2022/06/16 12:57:08;;;;;;;3.73;3.37;;;34.80;49.40;;;;;;5016635;28;20615;-81
2022/06/16 12:59:39;;;;;;;5.40;2.77;;;35.00;48.60;;;;;;5010330;28;21221;-81
2022/06/16 13:02:10;;;;;;;3.70;3.03;;;35.10;47.20;;;;;;5014993;28;20615;-81
2022/06/16 13:04:36;;;;;;;3.47;3.17;;;35.10;46.40;;;;;;5013636;28;20655;-82
2022/06/16 13:07:12;;;;;;;4.10;3.47;;;35.30;46.20;;;;;;5014203;28;20635;-81
2022/06/16 13:09:40;;;;;;;5.57;3.30;;;35.50;45.10;;;;;;5015943;28;20900;-81
2022/06/16 13:12:14;;;;;;;2.80;2.60;;;35.60;45.40;;;;;;5014210;28;20637;-81
2022/06/16 13:14:48;;;;;;;5.87;3.17;;;35.70;44.60;;;;;;5016972;28;20632;-81
2022/06/16 13:17:15;;;;;;;4.10;3.07;;;35.70;43.30;;;;;;5015434;28;20629;-81
2022/06/16 13:19:48;;;;;;;5.40;2.50;;;35.60;43.10;;;;;;5017942;28;20653;-81
2022/06/16 13:22:24;;;;;;;4.37;2.90;;;35.60;43.10;;;;;;5013207;28;20630;-81
2022/06/16 13:24:57;;;;;;;4.23;3.40;;;35.90;43.80;;;;;;5011025;28;20643;-81
2022/06/16 13:27:26;;;;;;;3.80;2.77;;;36.00;43.60;;;;;;5011503;28;20980;-81
2022/06/16 13:30:01;;;;;;;4.77;2.93;;;36.30;42.70;;;;;;5018332;28;20220;-81
2022/06/16 13:32:38;;;;;;;4.20;2.80;;;36.20;41.30;;;;;;5018680;28;20204;-81